sensor_id;sensor_type;location;lat;lon;timestamp;P1;durP1;ratioP1;P2;durP2;ratioP2
21860;SDS011;11095;48.066;8.540;2023-03-17T00:01:45;6.65;;;4.35;;
21860;SDS011;11095;48.066;8.540;2023-03-17T00:06:41;7.80;;;4.22;;
21860;SDS011;11095;48.066;8.540;2023-03-17T00:09:14;5.95;;;4.18;;
21860;SDS011;11095;48.066;8.540;2023-03-17T00:11:42;6.05;;;4.10;;
21860;SDS011;11095;48.066;8.540;2023-03-17T00:14:09;6.40;;;4.13;;
21860;SDS011;11095;48.066;8.540;2023-03-17T00:16:42;7.03;;;4.45;;
21860;SDS011;11095;48.066;8.540;2023-03-17T00:19:16;6.25;;;4.07;;
21860;SDS011;11095;48.066;8.540;2023-03-17T00:21:55;6.38;;;4.63;;
21860;SDS011;11095;48.066;8.540;2023-03-17T00:24:22;6.22;;;4.25;;
21860;SDS011;11095;48.066;8.540;2023-03-17T00:26:47;6.63;;;4.25;;
21860;SDS011;11095;48.066;8.540;2023-03-17T00:29:13;6.72;;;4.10;;
21860;SDS011;11095;48.066;8.540;2023-03-17T00:31:40;6.72;;;4.35;;
21860;SDS011;11095;48.066;8.540;2023-03-17T00:34:13;7.43;;;4.57;;
21860;SDS011;11095;48.066;8.540;2023-03-17T00:36:40;7.57;;;4.55;;
21860;SDS011;11095;48.066;8.540;2023-03-17T00:39:13;7.93;;;4.90;;
21860;SDS011;11095;48.066;8.540;2023-03-17T00:41:40;6.40;;;4.40;;
21860;SDS011;11095;48.066;8.540;2023-03-17T00:44:06;5.82;;;4.30;;
21860;SDS011;11095;48.066;8.540;2023-03-17T00:46:32;5.88;;;3.90;;
21860;SDS011;11095;48.066;8.540;2023-03-17T00:49:23;6.75;;;4.22;;
21860;SDS011;11095;48.066;8.540;2023-03-17T00:51:48;7.05;;;4.45;;
21860;SDS011;11095;48.066;8.540;2023-03-17T00:54:15;5.60;;;3.80;;
21860;SDS011;11095;48.066;8.540;2023-03-17T00:56:42;4.88;;;3.75;;
21860;SDS011;11095;48.066;8.540;2023-03-17T00:59:12;5.13;;;3.80;;
21860;SDS011;11095;48.066;8.540;2023-03-17T01:01:45;5.70;;;3.83;;
21860;SDS011;11095;48.066;8.540;2023-03-17T01:04:11;6.78;;;3.75;;
21860;SDS011;11095;48.066;8.540;2023-03-17T01:06:37;5.88;;;4.18;;
21860;SDS011;11095;48.066;8.540;2023-03-17T01:09:03;7.13;;;4.10;;
21860;SDS011;11095;48.066;8.540;2023-03-17T01:11:29;5.60;;;3.92;;
21860;SDS011;11095;48.066;8.540;2023-03-17T01:13:56;6.13;;;3.90;;
21860;SDS011;11095;48.066;8.540;2023-03-17T01:16:21;6.05;;;3.97;;
21860;SDS011;11095;48.066;8.540;2023-03-17T01:18:47;5.50;;;3.58;;
21860;SDS011;11095;48.066;8.540;2023-03-17T01:21:13;4.47;;;3.65;;
21860;SDS011;11095;48.066;8.540;2023-03-17T01:23:39;5.85;;;3.83;;
21860;SDS011;11095;48.066;8.540;2023-03-17T01:26:06;6.40;;;3.88;;
21860;SDS011;11095;48.066;8.540;2023-03-17T01:28:31;5.72;;;3.30;;
21860;SDS011;11095;48.066;8.540;2023-03-17T01:30:58;6.22;;;3.85;;
21860;SDS011;11095;48.066;8.540;2023-03-17T01:33:24;5.47;;;3.50;;
21860;SDS011;11095;48.066;8.540;2023-03-17T01:35:50;4.90;;;3.78;;
21860;SDS011;11095;48.066;8.540;2023-03-17T01:38:16;5.93;;;3.63;;
21860;SDS011;11095;48.066;8.540;2023-03-17T01:40:47;6.85;;;4.05;;
21860;SDS011;11095;48.066;8.540;2023-03-17T01:43:16;5.18;;;3.63;;
21860;SDS011;11095;48.066;8.540;2023-03-17T01:51:31;5.05;;;3.40;;
21860;SDS011;11095;48.066;8.540;2023-03-17T01:54:07;4.45;;;3.40;;
21860;SDS011;11095;48.066;8.540;2023-03-17T01:56:36;6.38;;;3.72;;
21860;SDS011;11095;48.066;8.540;2023-03-17T01:59:05;6.03;;;3.50;;
21860;SDS011;11095;48.066;8.540;2023-03-17T02:01:35;5.20;;;3.38;;
21860;SDS011;11095;48.066;8.540;2023-03-17T02:04:04;4.30;;;3.35;;
21860;SDS011;11095;48.066;8.540;2023-03-17T02:06:32;4.88;;;3.40;;
21860;SDS011;11095;48.066;8.540;2023-03-17T02:08:59;5.50;;;3.55;;
21860;SDS011;11095;48.066;8.540;2023-03-17T02:11:25;5.30;;;3.50;;
21860;SDS011;11095;48.066;8.540;2023-03-17T02:13:52;5.47;;;3.80;;
21860;SDS011;11095;48.066;8.540;2023-03-17T02:16:19;4.68;;;3.50;;
21860;SDS011;11095;48.066;8.540;2023-03-17T02:18:45;6.13;;;3.78;;
21860;SDS011;11095;48.066;8.540;2023-03-17T02:23:52;5.03;;;3.47;;
21860;SDS011;11095;48.066;8.540;2023-03-17T02:26:17;9.10;;;3.50;;
21860;SDS011;11095;48.066;8.540;2023-03-17T02:28:47;7.43;;;3.58;;
21860;SDS011;11095;48.066;8.540;2023-03-17T02:31:13;7.28;;;3.53;;
21860;SDS011;11095;48.066;8.540;2023-03-17T02:33:39;5.70;;;3.50;;
21860;SDS011;11095;48.066;8.540;2023-03-17T02:36:07;5.07;;;3.25;;
21860;SDS011;11095;48.066;8.540;2023-03-17T02:38:33;5.82;;;3.70;;
21860;SDS011;11095;48.066;8.540;2023-03-17T02:41:00;4.88;;;3.65;;
21860;SDS011;11095;48.066;8.540;2023-03-17T02:43:25;5.95;;;3.50;;
21860;SDS011;11095;48.066;8.540;2023-03-17T02:45:51;5.15;;;3.28;;
21860;SDS011;11095;48.066;8.540;2023-03-17T02:48:17;6.38;;;3.53;;
21860;SDS011;11095;48.066;8.540;2023-03-17T02:50:43;5.85;;;3.63;;
21860;SDS011;11095;48.066;8.540;2023-03-17T02:53:08;5.25;;;3.25;;
21860;SDS011;11095;48.066;8.540;2023-03-17T02:55:34;5.40;;;3.50;;
21860;SDS011;11095;48.066;8.540;2023-03-17T02:58:00;6.10;;;3.40;;
21860;SDS011;11095;48.066;8.540;2023-03-17T03:00:27;4.97;;;3.05;;
21860;SDS011;11095;48.066;8.540;2023-03-17T03:02:53;5.07;;;3.28;;
21860;SDS011;11095;48.066;8.540;2023-03-17T03:05:19;4.63;;;3.30;;
21860;SDS011;11095;48.066;8.540;2023-03-17T03:07:45;5.55;;;3.50;;
21860;SDS011;11095;48.066;8.540;2023-03-17T03:10:10;5.13;;;3.50;;
21860;SDS011;11095;48.066;8.540;2023-03-17T03:12:36;5.45;;;3.70;;
21860;SDS011;11095;48.066;8.540;2023-03-17T03:15:02;5.07;;;3.40;;
21860;SDS011;11095;48.066;8.540;2023-03-17T03:17:27;5.10;;;3.58;;
21860;SDS011;11095;48.066;8.540;2023-03-17T03:19:53;4.65;;;3.28;;
21860;SDS011;11095;48.066;8.540;2023-03-17T03:22:19;4.63;;;3.13;;
21860;SDS011;11095;48.066;8.540;2023-03-17T03:24:45;5.25;;;3.35;;
21860;SDS011;11095;48.066;8.540;2023-03-17T03:27:10;4.55;;;3.10;;
21860;SDS011;11095;48.066;8.540;2023-03-17T03:29:36;5.63;;;3.42;;
21860;SDS011;11095;48.066;8.540;2023-03-17T03:32:02;4.97;;;3.38;;
21860;SDS011;11095;48.066;8.540;2023-03-17T03:34:28;5.35;;;3.20;;
21860;SDS011;11095;48.066;8.540;2023-03-17T03:36:53;5.07;;;3.58;;
21860;SDS011;11095;48.066;8.540;2023-03-17T03:39:20;4.70;;;3.47;;
21860;SDS011;11095;48.066;8.540;2023-03-17T03:41:45;4.45;;;3.03;;
21860;SDS011;11095;48.066;8.540;2023-03-17T03:44:11;5.28;;;3.47;;
21860;SDS011;11095;48.066;8.540;2023-03-17T03:46:36;5.35;;;3.60;;
21860;SDS011;11095;48.066;8.540;2023-03-17T03:49:02;4.18;;;3.17;;
21860;SDS011;11095;48.066;8.540;2023-03-17T03:51:28;5.07;;;3.40;;
21860;SDS011;11095;48.066;8.540;2023-03-17T03:53:53;4.50;;;3.20;;
21860;SDS011;11095;48.066;8.540;2023-03-17T03:56:19;6.13;;;3.38;;
21860;SDS011;11095;48.066;8.540;2023-03-17T03:58:44;4.55;;;3.13;;
21860;SDS011;11095;48.066;8.540;2023-03-17T04:01:10;5.00;;;3.40;;
21860;SDS011;11095;48.066;8.540;2023-03-17T04:03:36;5.97;;;3.47;;
21860;SDS011;11095;48.066;8.540;2023-03-17T04:06:02;5.30;;;3.53;;
21860;SDS011;11095;48.066;8.540;2023-03-17T04:08:28;6.03;;;3.03;;
21860;SDS011;11095;48.066;8.540;2023-03-17T04:10:55;4.97;;;3.42;;
21860;SDS011;11095;48.066;8.540;2023-03-17T04:13:21;5.28;;;3.53;;
21860;SDS011;11095;48.066;8.540;2023-03-17T04:15:47;6.47;;;3.78;;
21860;SDS011;11095;48.066;8.540;2023-03-17T04:18:13;5.50;;;3.60;;
21860;SDS011;11095;48.066;8.540;2023-03-17T04:20:39;5.53;;;3.70;;
21860;SDS011;11095;48.066;8.540;2023-03-17T04:23:04;5.93;;;3.47;;
21860;SDS011;11095;48.066;8.540;2023-03-17T04:25:30;6.20;;;3.80;;
21860;SDS011;11095;48.066;8.540;2023-03-17T04:27:56;5.47;;;3.50;;
21860;SDS011;11095;48.066;8.540;2023-03-17T04:30:22;6.45;;;3.97;;
21860;SDS011;11095;48.066;8.540;2023-03-17T04:32:48;5.72;;;3.25;;
21860;SDS011;11095;48.066;8.540;2023-03-17T04:35:14;6.28;;;3.70;;
21860;SDS011;11095;48.066;8.540;2023-03-17T04:37:42;6.35;;;3.53;;
21860;SDS011;11095;48.066;8.540;2023-03-17T04:40:10;6.15;;;3.38;;
21860;SDS011;11095;48.066;8.540;2023-03-17T04:42:37;5.55;;;3.40;;
21860;SDS011;11095;48.066;8.540;2023-03-17T04:45:03;5.78;;;3.30;;
21860;SDS011;11095;48.066;8.540;2023-03-17T04:47:30;5.47;;;3.60;;
21860;SDS011;11095;48.066;8.540;2023-03-17T04:49:56;5.45;;;3.67;;
21860;SDS011;11095;48.066;8.540;2023-03-17T04:52:22;5.78;;;3.67;;
21860;SDS011;11095;48.066;8.540;2023-03-17T04:54:48;7.20;;;3.80;;
21860;SDS011;11095;48.066;8.540;2023-03-17T04:57:13;5.60;;;3.53;;
21860;SDS011;11095;48.066;8.540;2023-03-17T04:59:39;5.55;;;3.53;;
21860;SDS011;11095;48.066;8.540;2023-03-17T05:02:04;6.05;;;3.80;;
21860;SDS011;11095;48.066;8.540;2023-03-17T05:04:31;5.20;;;3.60;;
21860;SDS011;11095;48.066;8.540;2023-03-17T05:06:57;5.20;;;3.47;;
21860;SDS011;11095;48.066;8.540;2023-03-17T05:09:23;5.57;;;4.00;;
21860;SDS011;11095;48.066;8.540;2023-03-17T05:11:50;7.68;;;4.22;;
21860;SDS011;11095;48.066;8.540;2023-03-17T05:14:16;7.15;;;3.50;;
21860;SDS011;11095;48.066;8.540;2023-03-17T05:16:42;6.68;;;3.47;;
21860;SDS011;11095;48.066;8.540;2023-03-17T05:19:10;5.45;;;3.50;;
21860;SDS011;11095;48.066;8.540;2023-03-17T05:21:36;5.10;;;3.25;;
21860;SDS011;11095;48.066;8.540;2023-03-17T05:24:01;6.10;;;4.03;;
21860;SDS011;11095;48.066;8.540;2023-03-17T05:26:27;5.18;;;3.45;;
21860;SDS011;11095;48.066;8.540;2023-03-17T05:28:53;5.55;;;3.80;;
21860;SDS011;11095;48.066;8.540;2023-03-17T05:31:19;6.47;;;4.07;;
21860;SDS011;11095;48.066;8.540;2023-03-17T05:33:44;6.38;;;3.92;;
21860;SDS011;11095;48.066;8.540;2023-03-17T05:36:13;7.30;;;4.25;;
21860;SDS011;11095;48.066;8.540;2023-03-17T05:38:39;7.35;;;4.35;;
21860;SDS011;11095;48.066;8.540;2023-03-17T05:41:05;6.72;;;4.50;;
21860;SDS011;11095;48.066;8.540;2023-03-17T05:43:31;5.57;;;3.80;;
21860;SDS011;11095;48.066;8.540;2023-03-17T05:45:57;5.47;;;3.88;;
21860;SDS011;11095;48.066;8.540;2023-03-17T05:48:23;6.50;;;4.00;;
21860;SDS011;11095;48.066;8.540;2023-03-17T05:50:49;7.85;;;4.22;;
21860;SDS011;11095;48.066;8.540;2023-03-17T05:53:14;5.45;;;3.75;;
21860;SDS011;11095;48.066;8.540;2023-03-17T05:55:41;6.97;;;3.85;;
21860;SDS011;11095;48.066;8.540;2023-03-17T05:58:07;5.60;;;3.97;;
21860;SDS011;11095;48.066;8.540;2023-03-17T06:00:33;6.03;;;3.45;;
21860;SDS011;11095;48.066;8.540;2023-03-17T06:03:00;5.20;;;3.40;;
21860;SDS011;11095;48.066;8.540;2023-03-17T06:05:27;5.38;;;3.40;;
21860;SDS011;11095;48.066;8.540;2023-03-17T06:07:53;5.18;;;3.03;;
21860;SDS011;11095;48.066;8.540;2023-03-17T06:10:19;3.75;;;3.00;;
21860;SDS011;11095;48.066;8.540;2023-03-17T06:12:45;5.72;;;3.30;;
21860;SDS011;11095;48.066;8.540;2023-03-17T06:15:11;5.55;;;3.28;;
21860;SDS011;11095;48.066;8.540;2023-03-17T06:17:37;4.30;;;3.15;;
21860;SDS011;11095;48.066;8.540;2023-03-17T06:20:03;3.97;;;3.00;;
21860;SDS011;11095;48.066;8.540;2023-03-17T06:22:29;3.45;;;2.72;;
21860;SDS011;11095;48.066;8.540;2023-03-17T06:24:55;5.93;;;2.90;;
21860;SDS011;11095;48.066;8.540;2023-03-17T06:27:21;4.70;;;3.13;;
21860;SDS011;11095;48.066;8.540;2023-03-17T06:29:46;4.75;;;2.90;;
21860;SDS011;11095;48.066;8.540;2023-03-17T06:32:12;2.90;;;2.58;;
21860;SDS011;11095;48.066;8.540;2023-03-17T06:34:38;3.85;;;2.40;;
21860;SDS011;11095;48.066;8.540;2023-03-17T06:37:05;3.47;;;2.40;;
21860;SDS011;11095;48.066;8.540;2023-03-17T06:39:31;3.58;;;2.38;;
21860;SDS011;11095;48.066;8.540;2023-03-17T06:41:57;3.80;;;2.13;;
21860;SDS011;11095;48.066;8.540;2023-03-17T06:44:22;3.85;;;2.45;;
21860;SDS011;11095;48.066;8.540;2023-03-17T06:46:48;3.15;;;2.58;;
21860;SDS011;11095;48.066;8.540;2023-03-17T06:49:14;3.83;;;2.38;;
21860;SDS011;11095;48.066;8.540;2023-03-17T06:51:39;3.55;;;2.13;;
21860;SDS011;11095;48.066;8.540;2023-03-17T06:54:05;4.18;;;2.40;;
21860;SDS011;11095;48.066;8.540;2023-03-17T06:56:32;3.25;;;2.42;;
21860;SDS011;11095;48.066;8.540;2023-03-17T06:58:58;3.17;;;2.17;;
21860;SDS011;11095;48.066;8.540;2023-03-17T07:01:24;3.33;;;2.30;;
21860;SDS011;11095;48.066;8.540;2023-03-17T07:03:51;3.25;;;2.50;;
21860;SDS011;11095;48.066;8.540;2023-03-17T07:06:17;4.47;;;2.58;;
21860;SDS011;11095;48.066;8.540;2023-03-17T07:08:42;3.90;;;2.38;;
21860;SDS011;11095;48.066;8.540;2023-03-17T07:11:08;2.95;;;2.30;;
21860;SDS011;11095;48.066;8.540;2023-03-17T07:13:34;4.90;;;2.50;;
21860;SDS011;11095;48.066;8.540;2023-03-17T07:16:01;4.18;;;2.58;;
21860;SDS011;11095;48.066;8.540;2023-03-17T07:18:28;3.60;;;2.58;;
21860;SDS011;11095;48.066;8.540;2023-03-17T07:20:58;3.83;;;2.55;;
21860;SDS011;11095;48.066;8.540;2023-03-17T07:23:25;3.65;;;2.50;;
21860;SDS011;11095;48.066;8.540;2023-03-17T07:25:52;3.67;;;2.67;;
21860;SDS011;11095;48.066;8.540;2023-03-17T07:28:18;4.68;;;2.42;;
21860;SDS011;11095;48.066;8.540;2023-03-17T07:30:46;3.40;;;2.40;;
21860;SDS011;11095;48.066;8.540;2023-03-17T07:33:13;4.00;;;2.38;;
21860;SDS011;11095;48.066;8.540;2023-03-17T07:35:41;4.68;;;2.45;;
21860;SDS011;11095;48.066;8.540;2023-03-17T07:38:09;4.40;;;2.53;;
21860;SDS011;11095;48.066;8.540;2023-03-17T07:40:36;3.63;;;2.65;;
21860;SDS011;11095;48.066;8.540;2023-03-17T07:43:02;4.72;;;2.67;;
21860;SDS011;11095;48.066;8.540;2023-03-17T07:45:28;3.55;;;2.60;;
21860;SDS011;11095;48.066;8.540;2023-03-17T07:47:54;3.83;;;2.70;;
21860;SDS011;11095;48.066;8.540;2023-03-17T07:50:19;4.88;;;3.05;;
21860;SDS011;11095;48.066;8.540;2023-03-17T07:52:45;3.03;;;2.70;;
21860;SDS011;11095;48.066;8.540;2023-03-17T07:55:11;3.30;;;2.60;;
21860;SDS011;11095;48.066;8.540;2023-03-17T07:57:37;3.90;;;2.80;;
21860;SDS011;11095;48.066;8.540;2023-03-17T08:00:04;3.17;;;2.50;;
21860;SDS011;11095;48.066;8.540;2023-03-17T08:02:34;3.28;;;2.60;;
21860;SDS011;11095;48.066;8.540;2023-03-17T08:05:00;3.50;;;2.88;;
21860;SDS011;11095;48.066;8.540;2023-03-17T08:07:27;4.25;;;2.63;;
21860;SDS011;11095;48.066;8.540;2023-03-17T08:09:54;3.42;;;2.60;;
21860;SDS011;11095;48.066;8.540;2023-03-17T08:12:20;3.10;;;2.55;;
21860;SDS011;11095;48.066;8.540;2023-03-17T08:14:46;4.10;;;2.70;;
21860;SDS011;11095;48.066;8.540;2023-03-17T08:17:11;5.60;;;3.03;;
21860;SDS011;11095;48.066;8.540;2023-03-17T08:19:37;3.08;;;2.55;;
21860;SDS011;11095;48.066;8.540;2023-03-17T08:22:03;3.47;;;2.60;;
21860;SDS011;11095;48.066;8.540;2023-03-17T08:24:29;5.38;;;2.83;;
21860;SDS011;11095;48.066;8.540;2023-03-17T08:26:54;5.28;;;3.10;;
21860;SDS011;11095;48.066;8.540;2023-03-17T08:29:20;4.88;;;3.03;;
21860;SDS011;11095;48.066;8.540;2023-03-17T08:31:46;4.45;;;3.05;;
21860;SDS011;11095;48.066;8.540;2023-03-17T08:34:12;4.70;;;2.80;;
21860;SDS011;11095;48.066;8.540;2023-03-17T08:36:38;3.50;;;2.85;;
21860;SDS011;11095;48.066;8.540;2023-03-17T08:39:03;4.25;;;3.08;;
21860;SDS011;11095;48.066;8.540;2023-03-17T08:41:29;4.20;;;3.03;;
21860;SDS011;11095;48.066;8.540;2023-03-17T08:43:55;3.80;;;3.08;;
21860;SDS011;11095;48.066;8.540;2023-03-17T08:46:23;4.45;;;2.85;;
21860;SDS011;11095;48.066;8.540;2023-03-17T08:48:51;5.90;;;3.47;;
21860;SDS011;11095;48.066;8.540;2023-03-17T08:51:19;5.57;;;3.38;;
21860;SDS011;11095;48.066;8.540;2023-03-17T08:53:45;5.30;;;3.70;;
21860;SDS011;11095;48.066;8.540;2023-03-17T08:56:11;5.05;;;3.50;;
21860;SDS011;11095;48.066;8.540;2023-03-17T08:58:38;5.63;;;3.67;;
21860;SDS011;11095;48.066;8.540;2023-03-17T09:01:04;5.53;;;4.00;;
21860;SDS011;11095;48.066;8.540;2023-03-17T09:03:31;4.47;;;3.40;;
21860;SDS011;11095;48.066;8.540;2023-03-17T09:05:57;6.30;;;3.65;;
21860;SDS011;11095;48.066;8.540;2023-03-17T09:08:23;8.52;;;3.92;;
21860;SDS011;11095;48.066;8.540;2023-03-17T09:10:50;5.65;;;3.80;;
21860;SDS011;11095;48.066;8.540;2023-03-17T09:13:17;6.38;;;3.90;;
21860;SDS011;11095;48.066;8.540;2023-03-17T09:15:43;5.25;;;3.67;;
21860;SDS011;11095;48.066;8.540;2023-03-17T09:18:10;6.28;;;3.67;;
21860;SDS011;11095;48.066;8.540;2023-03-17T09:20:36;7.55;;;4.20;;
21860;SDS011;11095;48.066;8.540;2023-03-17T09:23:04;5.78;;;4.00;;
21860;SDS011;11095;48.066;8.540;2023-03-17T09:25:34;5.47;;;3.90;;
21860;SDS011;11095;48.066;8.540;2023-03-17T09:28:01;5.72;;;3.95;;
21860;SDS011;11095;48.066;8.540;2023-03-17T09:30:28;5.47;;;3.70;;
21860;SDS011;11095;48.066;8.540;2023-03-17T09:32:54;5.13;;;3.30;;
21860;SDS011;11095;48.066;8.540;2023-03-17T09:35:20;6.93;;;4.07;;
21860;SDS011;11095;48.066;8.540;2023-03-17T09:37:46;5.53;;;3.63;;
21860;SDS011;11095;48.066;8.540;2023-03-17T09:40:13;5.07;;;3.72;;
21860;SDS011;11095;48.066;8.540;2023-03-17T09:42:45;5.07;;;3.60;;
21860;SDS011;11095;48.066;8.540;2023-03-17T09:53:30;5.55;;;3.80;;
21860;SDS011;11095;48.066;8.540;2023-03-17T09:56:12;4.30;;;3.40;;
21860;SDS011;11095;48.066;8.540;2023-03-17T09:58:41;5.68;;;3.78;;
21860;SDS011;11095;48.066;8.540;2023-03-17T10:01:25;5.07;;;3.47;;
21860;SDS011;11095;48.066;8.540;2023-03-17T10:03:51;6.00;;;3.97;;
21860;SDS011;11095;48.066;8.540;2023-03-17T10:06:31;6.30;;;3.53;;
21860;SDS011;11095;48.066;8.540;2023-03-17T10:11:41;6.78;;;3.72;;
21860;SDS011;11095;48.066;8.540;2023-03-17T10:16:51;6.07;;;3.35;;
21860;SDS011;11095;48.066;8.540;2023-03-17T10:22:29;4.47;;;3.40;;
21860;SDS011;11095;48.066;8.540;2023-03-17T10:25:18;5.93;;;3.58;;
21860;SDS011;11095;48.066;8.540;2023-03-17T10:27:56;6.57;;;3.60;;
21860;SDS011;11095;48.066;8.540;2023-03-17T10:30:41;6.30;;;3.67;;
21860;SDS011;11095;48.066;8.540;2023-03-17T10:33:07;4.28;;;3.33;;
21860;SDS011;11095;48.066;8.540;2023-03-17T10:35:33;4.82;;;3.47;;
21860;SDS011;11095;48.066;8.540;2023-03-17T10:38:18;5.97;;;3.55;;
21860;SDS011;11095;48.066;8.540;2023-03-17T10:40:58;3.95;;;2.80;;
21860;SDS011;11095;48.066;8.540;2023-03-17T10:43:27;6.43;;;3.28;;
21860;SDS011;11095;48.066;8.540;2023-03-17T10:45:58;4.60;;;3.33;;
21860;SDS011;11095;48.066;8.540;2023-03-17T10:48:27;4.57;;;3.13;;
21860;SDS011;11095;48.066;8.540;2023-03-17T10:50:55;4.45;;;2.72;;
21860;SDS011;11095;48.066;8.540;2023-03-17T10:53:23;3.92;;;2.92;;
21860;SDS011;11095;48.066;8.540;2023-03-17T10:56:39;5.10;;;3.10;;
21860;SDS011;11095;48.066;8.540;2023-03-17T10:58:49;4.22;;;2.60;;
21860;SDS011;11095;48.066;8.540;2023-03-17T11:01:21;3.47;;;2.38;;
21860;SDS011;11095;48.066;8.540;2023-03-17T11:03:54;2.85;;;2.38;;
21860;SDS011;11095;48.066;8.540;2023-03-17T11:06:42;3.95;;;2.40;;
21860;SDS011;11095;48.066;8.540;2023-03-17T11:09:08;5.35;;;3.83;;
21860;SDS011;11095;48.066;8.540;2023-03-17T11:11:42;5.05;;;2.97;;
21860;SDS011;11095;48.066;8.540;2023-03-17T11:14:18;4.45;;;3.22;;
21860;SDS011;11095;48.066;8.540;2023-03-17T11:16:51;4.38;;;3.10;;
21860;SDS011;11095;48.066;8.540;2023-03-17T11:24:32;5.05;;;2.60;;
21860;SDS011;11095;48.066;8.540;2023-03-17T11:27:27;2.67;;;1.95;;
21860;SDS011;11095;48.066;8.540;2023-03-17T11:30:08;3.13;;;2.10;;
21860;SDS011;11095;48.066;8.540;2023-03-17T11:33:12;3.00;;;2.10;;
21860;SDS011;11095;48.066;8.540;2023-03-17T11:41:27;2.80;;;2.22;;
21860;SDS011;11095;48.066;8.540;2023-03-17T11:49:53;2.70;;;2.10;;
21860;SDS011;11095;48.066;8.540;2023-03-17T11:58:21;3.20;;;2.20;;
21860;SDS011;11095;48.066;8.540;2023-03-17T12:05:55;2.20;;;1.80;;
21860;SDS011;11095;48.066;8.540;2023-03-17T12:11:07;3.20;;;1.52;;
21860;SDS011;11095;48.066;8.540;2023-03-17T12:16:43;2.55;;;1.60;;
21860;SDS011;11095;48.066;8.540;2023-03-17T12:19:26;3.30;;;1.60;;
21860;SDS011;11095;48.066;8.540;2023-03-17T12:22:01;1.55;;;1.40;;
21860;SDS011;11095;48.066;8.540;2023-03-17T12:24:31;3.72;;;1.65;;
21860;SDS011;11095;48.066;8.540;2023-03-17T12:27:27;2.80;;;2.08;;
21860;SDS011;11095;48.066;8.540;2023-03-17T12:35:29;3.53;;;2.13;;
21860;SDS011;11095;48.066;8.540;2023-03-17T12:38:08;2.88;;;1.70;;
21860;SDS011;11095;48.066;8.540;2023-03-17T12:40:49;2.92;;;1.13;;
21860;SDS011;11095;48.066;8.540;2023-03-17T12:51:40;2.33;;;1.45;;
21860;SDS011;11095;48.066;8.540;2023-03-17T12:54:17;2.55;;;1.50;;
21860;SDS011;11095;48.066;8.540;2023-03-17T12:56:45;2.88;;;1.80;;
21860;SDS011;11095;48.066;8.540;2023-03-17T12:59:17;2.33;;;1.52;;
21860;SDS011;11095;48.066;8.540;2023-03-17T13:01:54;2.47;;;1.80;;
21860;SDS011;11095;48.066;8.540;2023-03-17T13:04:23;2.00;;;1.30;;
21860;SDS011;11095;48.066;8.540;2023-03-17T13:11:56;2.08;;;1.40;;
21860;SDS011;11095;48.066;8.540;2023-03-17T13:14:23;2.65;;;1.55;;
21860;SDS011;11095;48.066;8.540;2023-03-17T13:16:51;1.50;;;1.20;;
21860;SDS011;11095;48.066;8.540;2023-03-17T13:19:32;1.58;;;1.30;;
21860;SDS011;11095;48.066;8.540;2023-03-17T13:32:55;3.15;;;1.70;;
21860;SDS011;11095;48.066;8.540;2023-03-17T13:36:00;1.80;;;1.40;;
21860;SDS011;11095;48.066;8.540;2023-03-17T13:48:54;3.20;;;1.60;;
21860;SDS011;11095;48.066;8.540;2023-03-17T13:51:24;2.20;;;1.33;;
21860;SDS011;11095;48.066;8.540;2023-03-17T13:58:55;2.25;;;1.63;;
21860;SDS011;11095;48.066;8.540;2023-03-17T14:04:11;3.33;;;1.75;;
21860;SDS011;11095;48.066;8.540;2023-03-17T14:06:50;3.17;;;1.55;;
21860;SDS011;11095;48.066;8.540;2023-03-17T14:12:27;2.80;;;1.58;;
21860;SDS011;11095;48.066;8.540;2023-03-17T14:15:01;3.42;;;1.52;;
21860;SDS011;11095;48.066;8.540;2023-03-17T14:20:22;1.83;;;1.35;;
21860;SDS011;11095;48.066;8.540;2023-03-17T14:22:55;2.70;;;1.33;;
21860;SDS011;11095;48.066;8.540;2023-03-17T14:25:24;1.92;;;1.40;;
21860;SDS011;11095;48.066;8.540;2023-03-17T14:27:56;4.95;;;1.70;;
21860;SDS011;11095;48.066;8.540;2023-03-17T14:30:23;2.03;;;1.52;;
21860;SDS011;11095;48.066;8.540;2023-03-17T14:32:55;3.65;;;2.03;;
21860;SDS011;11095;48.066;8.540;2023-03-17T14:35:29;2.50;;;1.73;;
21860;SDS011;11095;48.066;8.540;2023-03-17T14:37:56;2.50;;;1.90;;
21860;SDS011;11095;48.066;8.540;2023-03-17T14:40:24;3.33;;;1.80;;
21860;SDS011;11095;48.066;8.540;2023-03-17T14:42:52;2.58;;;1.60;;
21860;SDS011;11095;48.066;8.540;2023-03-17T14:48:16;2.10;;;1.60;;
21860;SDS011;11095;48.066;8.540;2023-03-17T14:50:52;2.72;;;1.77;;
21860;SDS011;11095;48.066;8.540;2023-03-17T14:53:39;2.67;;;1.55;;
21860;SDS011;11095;48.066;8.540;2023-03-17T14:56:07;2.00;;;1.58;;
21860;SDS011;11095;48.066;8.540;2023-03-17T14:58:36;4.05;;;1.75;;
21860;SDS011;11095;48.066;8.540;2023-03-17T15:01:07;2.97;;;2.13;;
21860;SDS011;11095;48.066;8.540;2023-03-17T15:03:39;3.85;;;2.10;;
21860;SDS011;11095;48.066;8.540;2023-03-17T15:06:23;3.67;;;1.60;;
21860;SDS011;11095;48.066;8.540;2023-03-17T15:08:51;2.38;;;1.60;;
21860;SDS011;11095;48.066;8.540;2023-03-17T15:13:46;3.17;;;2.20;;
21860;SDS011;11095;48.066;8.540;2023-03-17T15:16:17;4.82;;;2.50;;
21860;SDS011;11095;48.066;8.540;2023-03-17T15:18:51;3.58;;;2.60;;
21860;SDS011;11095;48.066;8.540;2023-03-17T15:21:42;4.68;;;2.58;;
21860;SDS011;11095;48.066;8.540;2023-03-17T15:24:22;3.30;;;2.70;;
21860;SDS011;11095;48.066;8.540;2023-03-17T15:27:00;7.05;;;4.88;;
21860;SDS011;11095;48.066;8.540;2023-03-17T15:29:37;6.65;;;3.42;;
21860;SDS011;11095;48.066;8.540;2023-03-17T15:32:09;5.53;;;2.55;;
21860;SDS011;11095;48.066;8.540;2023-03-17T15:34:36;2.80;;;2.03;;
21860;SDS011;11095;48.066;8.540;2023-03-17T15:37:01;2.45;;;1.92;;
21860;SDS011;11095;48.066;8.540;2023-03-17T15:39:27;4.28;;;2.20;;
21860;SDS011;11095;48.066;8.540;2023-03-17T15:41:53;2.88;;;2.05;;
21860;SDS011;11095;48.066;8.540;2023-03-17T15:44:18;4.60;;;2.20;;
21860;SDS011;11095;48.066;8.540;2023-03-17T15:46:44;2.72;;;1.90;;
21860;SDS011;11095;48.066;8.540;2023-03-17T15:49:10;4.38;;;2.30;;
21860;SDS011;11095;48.066;8.540;2023-03-17T15:51:36;3.15;;;1.98;;
21860;SDS011;11095;48.066;8.540;2023-03-17T15:54:02;2.58;;;1.77;;
21860;SDS011;11095;48.066;8.540;2023-03-17T15:56:28;3.20;;;2.00;;
21860;SDS011;11095;48.066;8.540;2023-03-17T15:58:54;4.30;;;1.88;;
21860;SDS011;11095;48.066;8.540;2023-03-17T16:01:20;4.25;;;2.17;;
21860;SDS011;11095;48.066;8.540;2023-03-17T16:03:45;5.97;;;2.33;;
21860;SDS011;11095;48.066;8.540;2023-03-17T16:06:13;3.22;;;2.20;;
21860;SDS011;11095;48.066;8.540;2023-03-17T16:08:45;3.53;;;2.30;;
21860;SDS011;11095;48.066;8.540;2023-03-17T16:11:17;3.15;;;2.22;;
21860;SDS011;11095;48.066;8.540;2023-03-17T16:13:49;4.80;;;2.70;;
21860;SDS011;11095;48.066;8.540;2023-03-17T16:16:48;3.67;;;2.33;;
21860;SDS011;11095;48.066;8.540;2023-03-17T16:19:09;5.03;;;3.00;;
21860;SDS011;11095;48.066;8.540;2023-03-17T16:21:42;5.47;;;2.60;;
21860;SDS011;11095;48.066;8.540;2023-03-17T16:24:18;5.68;;;3.20;;
21860;SDS011;11095;48.066;8.540;2023-03-17T16:26:45;5.57;;;3.35;;
21860;SDS011;11095;48.066;8.540;2023-03-17T16:29:12;5.95;;;3.83;;
21860;SDS011;11095;48.066;8.540;2023-03-17T16:31:45;8.23;;;4.38;;
21860;SDS011;11095;48.066;8.540;2023-03-17T16:34:16;7.70;;;4.65;;
21860;SDS011;11095;48.066;8.540;2023-03-17T16:36:46;7.13;;;4.50;;
21860;SDS011;11095;48.066;8.540;2023-03-17T16:39:18;8.50;;;5.10;;
21860;SDS011;11095;48.066;8.540;2023-03-17T16:41:46;6.50;;;4.45;;
21860;SDS011;11095;48.066;8.540;2023-03-17T16:44:13;5.75;;;4.13;;
21860;SDS011;11095;48.066;8.540;2023-03-17T16:46:40;6.78;;;4.35;;
21860;SDS011;11095;48.066;8.540;2023-03-17T16:49:11;7.28;;;4.10;;
21860;SDS011;11095;48.066;8.540;2023-03-17T16:51:44;6.82;;;4.30;;
21860;SDS011;11095;48.066;8.540;2023-03-17T16:54:10;7.20;;;3.92;;
21860;SDS011;11095;48.066;8.540;2023-03-17T16:56:37;6.43;;;3.88;;
21860;SDS011;11095;48.066;8.540;2023-03-17T16:59:04;6.93;;;4.38;;